Tiempo atmosférico en la estación meteorológica de Maspalomas, Las Palmas (25 m.)



Fecha
DESCASC
Temp. máxima en grados centígrados (hora)
DESCASC
Temp. mínima en grados centígrados (hora)
DESCASC
Temp. media en grados centígrados
DESCASC
Racha de viento máxima en m/sg (hora)
DESCASC
Velocidad máxima media en intervalos de 10 minutos(hora)
DESCASC
Precipitaciones diarias en mm
DESCASC
Precipitaciones de 00:00 a 06:00 en mm
DESCASC
Precipitaciones de 06:00 a 12:00 en mm
DESCASC
Precipitaciones de 12:00 a 18:00 en mm
DESCASC
Precipitaciones de 18:00 a 24:00 en mm
DESCASC
13-06-2019 23.4 (16:30) 18.5 (04:20) 20.9 6.11 (19:00) 5 (16:10) 0 0 0 0 0
12-06-2019 23.5 (14:10) 18.5 (06:30) 21 7.5 (15:10) 6.11 (18:00) 0 0 0 0 0
11-06-2019 23.9 (13:20) 18.5 (06:20) 21.2 8.89 (18:10) 6.11 (16:00) 0 0 0 0 0
10-06-2019 23.5 (14:00) 17.8 (05:00) 20.6 7.5 (15:40) 5.83 (15:40) 0 0 0 0 0
09-06-2019 23.9 (10:40) 19.2 (00:00) 21.6 9.44 (06:20) 6.67 (16:50) 0 0 0 0 0
08-06-2019 25.3 (15:30) 17.6 (00:00) 21.4 13.33 (13:50) 9.17 (13:50) 0 0 0 0 0
07-06-2019 24.5 (17:30) 17.4 (00:00) 20.9 10.56 (14:40) 6.11 (14:30) 0 0 0 0 0
06-06-2019 24.6 (12:20) 19.1 (00:00) 21.9 11.67 (11:20) 7.5 (11:20) 0 0 0 0 0
05-06-2019 23.9 (13:10) 19 (00:00) 21.4 7.78 (23:59) 5.56 (15:40) 0 0 0 0 0
04-06-2019 24.8 (18:00) 18.5 (00:00) 21.6 5.83 (12:00) 4.72 (12:50) 0 0 0 0 0
03-06-2019 26 (15:40) 18.9 (00:00) 22.4 5.56 (01:10) 3.89 (10:40) 0 0 0 0 0
02-06-2019 23.6 (10:00) 18 (00:00) 20.8 7.5 (15:10) 4.72 (15:30) 0 0 0 0 0
01-06-2019 23 (17:10) 18.6 (00:00) 20.8 8.06 (16:10) 4.72 (08:30) 0 0 0 0 0
31-05-2019 23.1 (16:50) 18 (00:00) 20.6 6.67 (12:30) 4.17 (12:40) 0 0 0 0 0
30-05-2019 23.4 (16:20) 18.9 (00:00) 21.1 6.67 (18:10) 5 (13:20) 0 0 0 0 0
29-05-2019 23.1 (11:30) 17.9 (00:00) 20.5 8.33 (13:30) 5 (17:20) 0 0 0 0 0
28-05-2019 23.7 (18:10) 18.7 (00:00) 21.2 6.67 (12:00) 4.44 (14:00) 0 0 0 0 0
27-05-2019 24 (16:10) 17.3 (00:00) 20.6 7.22 (14:40) 5.83 (14:40) 0 0 0 0 0
26-05-2019 23.3 (14:50) 17.8 (00:00) 20.5 7.22 (13:50) 5.56 (13:50) 0 0 0 0 0
25-05-2019 23.7 (18:10) 17.7 (00:00) 20.7 6.94 (14:10) 5.28 (15:20) 0 0 0 0 0
24-05-2019 25 (16:10) 16.9 (00:00) 20.9 8.61 (13:10) 5 (11:40) 0 0 0 0 0
23-05-2019 24.4 (17:30) 17 (00:00) 20.7 8.61 (18:10) 6.11 (15:40) 0 0 0 0 0
22-05-2019 24 (14:20) 17.3 (00:00) 20.6 8.89 (21:20) 6.39 (18:10) 0 0 0 0 0
21-05-2019 23.9 (12:30) 16.8 (07:20) 20.3 13.33 (13:40) 7.22 (13:40) 0 0 0 0 0
20-05-2019 25.6 (16:30) 17.8 (07:10) 21.7 8.61 (13:10) 6.11 (15:10) 0 0 0 0 0
19-05-2019 25.3 (16:00) 18.4 (00:00) 21.8 10.56 (13:00) 6.11 (13:00) 0 0 0 0 0
18-05-2019 23 (14:50) 18.1 (00:00) 20.6 9.17 (17:10) 7.5 (17:10) 0 0 0 0 0
17-05-2019 23.2 (16:20) 18 (00:00) 20.6 6.39 (22:50) 5 (22:50) 0 0 0 0 0

Gráficas

Temp. máximas Temp. mínimas Temp. medias Precipitaciones Rachas de viento máximas Velocidades máximas media en intervalos de 10 minutos

Datos horarios

Fecha y hora oficial Temperatura (ºC) Velocidad del viento (km/h) Dirección del viento Racha (km/h) Dirección de racha Precipitación (mm) Presión (hPa) Tendencia (hPa) Humedad (%)
2019-06-15 23:00:00 20.2 19 Nordeste 25 Este 0 -- -- 64
2019-06-15 22:00:00 20.4 17 Nordeste 30 Nordeste 0 -- -- 63
2019-06-15 21:00:00 20.3 21 Nordeste 30 Este 0 -- -- 65
2019-06-15 20:00:00 20.3 23 Este 28 Este 0 -- -- 69
2019-06-15 19:00:00 20.5 15 Este 18 Este 0 -- -- 63
2019-06-15 18:00:00 20.5 13 Este 18 Este 0 -- -- 63
2019-06-15 17:00:00 20.7 12 Este 15 Este 0 -- -- 63
2019-06-15 16:00:00 20.6 11 Este 17 Este 0 -- -- 63
2019-06-15 15:00:00 20.6 12 Este 17 Este 0 -- -- 65
2019-06-15 14:00:00 20.6 9 Este 20 Este 0 -- -- 63
2019-06-15 13:00:00 21.1 17 Este 22 Este 0 -- -- 59
2019-06-15 12:00:00 21.6 17 Este 29 Este 0 -- -- 57
2019-06-15 11:00:00 21.2 23 Este 33 Este 0 -- -- 57
2019-06-15 10:00:00 21.6 18 Nordeste 28 Este 0 -- -- 55
2019-06-15 09:00:00 20.4 20 Nordeste 29 Nordeste 0 -- -- 60
2019-06-15 08:00:00 19.2 16 Nordeste 31 Nordeste 0 -- -- 66
2019-06-15 07:00:00 19.1 18 Nordeste 30 Este 0 -- -- 66
2019-06-15 06:00:00 19.2 9 Nordeste 22 Nordeste 0 -- -- 59
2019-06-15 05:00:00 19.2 14 Nordeste 28 Este 0 -- -- 60
2019-06-15 04:00:00 19.2 18 Nordeste 26 Nordeste 0 -- -- 63
2019-06-15 03:00:00 19.4 11 Nordeste 16 Nordeste 0 -- -- 60
2019-06-15 02:00:00 19.7 7 Nordeste 17 Nordeste 0 -- -- 58
2019-06-15 01:00:00 19.5 8 Nordeste 18 Este 0 -- -- 59
2019-06-15 00:00:00 20.1 6 Nordeste 21 Nordeste 0 -- -- 61
2019-06-14 23:00:00 20.4 10 Nordeste 21 Nordeste 0 -- -- 61
2019-06-14 22:00:00 20.8 5 Sudoeste 15 Sur 0 -- -- 63
2019-06-14 21:00:00 21.2 3 Este 28 Este 0 -- -- 58
2019-06-14 20:00:00 20.7 23 Nordeste 33 Este 0 -- -- 58
2019-06-14 19:00:00 21.2 23 Este 31 Este 0 -- -- 55
2019-06-14 18:00:00 20.6 24 Este 32 Este 0 -- -- 69
2019-06-14 17:00:00 21.2 26 Este 33 Este 0 -- -- 65
2019-06-14 16:00:00 20.6 27 Este 34 Este 0 -- -- 65
2019-06-14 15:00:00 20 28 Este 33 Este 0 -- -- 69
2019-06-14 14:00:00 20 15 Sudeste 25 Este 0 -- -- 68
2019-06-14 13:00:00 20 22 Este 27 Este 0 -- -- 67
2019-06-14 12:00:00 21.1 22 Este 27 Este 0 -- -- 63
2019-06-14 11:00:00 20.8 19 Este 26 Este 0 -- -- 60
2019-06-14 10:00:00 21.3 21 Este 28 Este 0 -- -- 55
2019-06-14 09:00:00 20.8 13 Este 18 Este 0 -- -- 59
2019-06-14 08:00:00 19.4 6 Nordeste 14 Este 0 -- -- 63
2019-06-14 07:00:00 18.6 4 Norte 8 Nordeste 0 -- -- 64
2019-06-14 06:00:00 18.5 0 Calma 9 Nordeste 0 -- -- 65
2019-06-14 05:00:00 18.6 4 Nordeste 19 Este 0 -- -- 63
2019-06-14 04:00:00 19.4 14 Nordeste 21 Nordeste 0 -- -- 63
2019-06-14 03:00:00 18.5 0 Calma 10 Nordeste 0 -- -- 65
2019-06-14 02:00:00 19.9 0 Calma 9 Oeste 0 -- -- 65
2019-06-14 01:00:00 20.5 6 Nordeste 18 Este 0 -- -- 57
2019-06-14 00:00:00 20.5 7 Este 14 Este 0 -- -- 60
2019-06-13 23:00:00 21.1 6 Oeste 14 Oeste 0 -- -- 60
2019-06-13 22:00:00 21.4 5 Sudoeste 17 Nordeste 0 -- -- 57
2019-06-13 21:00:00 21.5 2 Sudoeste 8 Este 0 -- -- 57
2019-06-13 20:00:00 21.7 5 Este 20 Este 0 -- -- 57
2019-06-13 19:00:00 21.5 13 Este 22 Este 0 -- -- 60
2019-06-13 18:00:00 21.7 12 Sudoeste 20 Sudoeste 0 -- -- 57
2019-06-13 17:00:00 22.4 15 Sudoeste 22 Sudoeste 0 -- -- 57
2019-06-13 16:00:00 22.2 16 Sudoeste 20 Sudoeste 0 -- -- 58
2019-06-13 15:00:00 21.8 13 Sur 20 Sudoeste 0 -- -- 59
2019-06-13 14:00:00 22.8 14 Sudoeste 20 Sudoeste 0 -- -- 55
2019-06-13 13:00:00 21.8 15 Sudoeste 19 Sudoeste 0 -- -- 59
2019-06-13 12:00:00 21.9 9 Sudoeste 15 Sudoeste 0 -- -- 57
2019-06-13 11:00:00 21.2 7 Sudoeste 11 Sudoeste 0 -- -- 57
2019-06-13 10:00:00 22.9 3 Sur 7 Sudeste 0 -- -- 51
2019-06-13 09:00:00 20.7 2 Nordeste 9 Este 0 -- -- 57
2019-06-13 08:00:00 19.6 7 Este 9 Este 0 -- -- 60
2019-06-13 07:00:00 19.7 6 Nordeste 9 Nordeste 0 -- -- 61
2019-06-13 06:00:00 19.8 0 Calma 8 Noroeste 0 -- -- 63
2019-06-13 05:00:00 19.6 3 Noroeste 8 Oeste 0 -- -- 60
2019-06-13 04:00:00 19.3 0 Calma 5 Noroeste 0 -- -- 65
2019-06-13 03:00:00 20.2 0 Calma 7 Este 0 -- -- 65
2019-06-13 02:00:00 19.7 5 Este 16 Este 0 -- -- 65
2019-06-13 01:00:00 20.9 12 Sudeste 17 Sudeste 0 -- -- 67
2019-06-13 00:00:00 21 8 Sudeste 10 Sudeste 0 -- -- 67
2019-06-12 23:00:00 21 10 Sudoeste 25 Sudoeste 0 -- -- 72
2019-06-12 22:00:00 21.4 11 Oeste 20 Oeste 0 -- -- 71
2019-06-12 21:00:00 21.7 8 Oeste 21 Oeste 0 -- -- 69
2019-06-12 20:00:00 22.5 5 Oeste 12 Sudoeste 0 -- -- 65
2019-06-12 19:00:00 22 7 Sudeste 24 Sudeste 0 -- -- 68
2019-06-12 18:00:00 21.2 22 Sudeste 24 Sudeste 0 -- -- 69
2019-06-12 17:00:00 21.7 17 Sur 23 Sudoeste 0 -- -- 69
2019-06-12 16:00:00 22 19 Sudoeste 27 Sudoeste 0 -- -- 69
2019-06-12 15:00:00 21.5 19 Sudoeste 27 Sudoeste 0 -- -- 68
2019-06-12 14:00:00 23.3 8 Oeste 18 Sudoeste 0 -- -- 62
2019-06-12 13:00:00 22 10 Sudoeste 14 Oeste 0 -- -- 63
2019-06-12 12:00:00 22.1 8 Sur 17 Sur 0 -- -- 65
2019-06-12 11:00:00 21 14 Sur 19 Sudeste 0 -- -- 74
2019-06-12 10:00:00 20.6 14 Sur 21 Sur 0 -- -- 74
2019-06-12 09:00:00 22 8 Sudoeste 12 Sudoeste 0 -- -- 71
2019-06-12 08:00:00 19.1 0 Calma 5 Noroeste 0 -- -- 78
2019-06-12 07:00:00 19 0 Calma 7 Noroeste 0 -- -- 77
2019-06-12 06:00:00 19.4 3 Nordeste 12 Este 0 -- -- 77
2019-06-12 05:00:00 19.2 0 Calma 5 Oeste 0 -- -- 72
2019-06-12 04:00:00 20.3 0 Calma 10 Oeste 0 -- -- 72
2019-06-12 03:00:00 20.3 3 Oeste 8 Oeste 0 -- -- 74
2019-06-12 02:00:00 20.6 0 Calma 18 Sudoeste 0 -- -- 72
2019-06-12 01:00:00 21.1 11 Sudoeste 14 Sudoeste 0 -- -- 72
2019-06-12 00:00:00 21.1 6 Sudoeste 19 Sudoeste 0 -- -- 72
2019-06-11 23:00:00 21.2 14 Sudoeste 21 Sudoeste 0 -- -- 74
2019-06-11 22:00:00 21.6 6 Sudoeste 14 Sudoeste 0 -- -- 71
2019-06-11 21:00:00 21.4 5 Oeste 12 Oeste 0 -- -- 68
2019-06-11 20:00:00 22.8 5 Oeste 17 Sudoeste 0 -- -- 65
2019-06-11 19:00:00 22 14 Sudoeste 32 Sudoeste 0 -- -- 66
2019-06-11 18:00:00 22.3 15 Sudoeste 21 Sudoeste 0 -- -- 66
2019-06-11 17:00:00 22.4 14 Sudoeste 23 Sudoeste 0 -- -- 63
2019-06-11 16:00:00 23.2 22 Sudoeste 26 Sudoeste 0 -- -- 63
2019-06-11 15:00:00 22.2 14 Sur 18 Sudoeste 0 -- -- 61
2019-06-11 14:00:00 22.8 12 Sudoeste 22 Oeste 0 -- -- 58
2019-06-11 13:00:00 23.8 9 Oeste 21 Sudoeste 0 -- -- 55
2019-06-11 12:00:00 21.9 14 Sur 17 Sur 0 -- -- 61
2019-06-11 11:00:00 22.1 7 Sudoeste 13 Sudoeste 0 -- -- 60
2019-06-11 10:00:00 21.8 7 Oeste 13 Oeste 0 -- -- 62
2019-06-11 09:00:00 21.7 0 Calma 16 Sudeste 0 -- -- 63
2019-06-11 08:00:00 19.9 8 Sudeste 14 Sudoeste 0 -- -- 71
2019-06-11 07:00:00 19.1 0 Calma 10 Norte 0 -- -- 74
2019-06-11 06:00:00 19.6 2 Noroeste 13 Oeste 0 -- -- 74
2019-06-11 05:00:00 19.5 0 Calma 10 Sur 0 -- -- 74
2019-06-11 04:00:00 19.2 0 Calma 7 Oeste 0 -- -- 74
2019-06-11 03:00:00 19.6 4 Oeste 15 Oeste 0 -- -- 72
2019-06-11 02:00:00 19.8 0 Calma 9 Oeste 0 -- -- 72
2019-06-11 01:00:00 19.9 3 Oeste 11 Oeste 0 -- -- 72
2019-06-11 00:00:00 20.3 5 Oeste 14 Oeste 0 -- -- 72
2019-06-10 23:00:00 20.2 5 Oeste 15 Oeste 0 -- -- 72
2019-06-10 22:00:00 21.1 10 Sudoeste 18 Sudoeste 0 -- -- 72
2019-06-10 21:00:00 21.3 14 Sudoeste 18 Oeste 0 -- -- 72
2019-06-10 20:00:00 22.3 9 Sudoeste 18 Sudoeste 0 -- -- 65
2019-06-10 19:00:00 21.9 16 Sudoeste 23 Sur 0 -- -- 66
2019-06-10 18:00:00 21.7 19 Sur 24 Sur 0 -- -- 67
2019-06-10 17:00:00 22.2 16 Sudoeste 23 Sudoeste 0 -- -- 63
2019-06-10 16:00:00 21.7 19 Sudoeste 27 Sudoeste 0 -- -- 61
2019-06-10 15:00:00 22.6 15 Oeste 22 Sudoeste 0 -- -- 58
2019-06-10 14:00:00 23.5 10 Oeste 21 Sudoeste 0 -- -- 58
2019-06-10 13:00:00 21.6 17 Sudoeste 23 Sudoeste 0 -- -- 62
2019-06-10 12:00:00 21.5 13 Sudoeste 21 Sudoeste 0 -- -- 61
2019-06-10 11:00:00 22.1 9 Oeste 18 Oeste 0 -- -- 60
2019-06-10 10:00:00 22.5 6 Sudoeste 9 Sudoeste 0 -- -- 60
2019-06-10 09:00:00 21.1 5 Sudeste 12 Este 0 -- -- 66
2019-06-10 08:00:00 20.4 0 Calma 8 Nordeste 0 -- -- 72
2019-06-10 07:00:00 18.7 0 Calma 5 Norte 0 -- -- 75
2019-06-10 06:00:00 18.4 0 Calma 5 Norte 0 -- -- 76
2019-06-10 05:00:00 18.4 3 Norte 5 Norte 0 -- -- 76
2019-06-10 04:00:00 18 0 Calma 6 Nordeste 0 -- -- 74
2019-06-10 03:00:00 19 0 Calma 9 Nordeste 0 -- -- 72
2019-06-10 02:00:00 19.4 2 Nordeste 7 Nordeste 0 -- -- 71
2019-06-10 01:00:00 20.1 3 Oeste 10 Oeste 0 -- -- 70
2019-06-10 00:00:00 20.4 6 Oeste 14 Sudoeste 0 -- -- 69
2019-06-09 23:00:00 20.6 10 Sudoeste 16 Sudoeste 0 -- -- 70
2019-06-09 22:00:00 20.6 14 Sudoeste 18 Sudoeste 0 -- -- 69
2019-06-09 21:00:00 20.8 14 Sudoeste 19 Sudoeste 0 -- -- 67
2019-06-09 20:00:00 20.3 16 Sudoeste 23 Sudoeste 0 -- -- 65
2019-06-09 19:00:00 21.1 20 Sudoeste 25 Sudoeste 0 -- -- 63
2019-06-09 18:00:00 20.9 21 Sudoeste 27 Sudoeste 0 -- -- 62
2019-06-09 17:00:00 21.3 23 Sudoeste 28 Sudoeste 0 -- -- 60
2019-06-09 16:00:00 21.4 18 Sudoeste 23 Oeste 0 -- -- 58
2019-06-09 15:00:00 21.8 13 Sudoeste 22 Sudoeste 0 -- -- 55
2019-06-09 14:00:00 22 15 Sudoeste 23 Sudoeste 0 -- -- 55
2019-06-09 13:00:00 22.2 14 Oeste 21 Sudoeste 0 -- -- 54
2019-06-09 12:00:00 21.8 11 Sudoeste 20 Oeste 0 -- -- 55
2019-06-09 11:00:00 22 10 Oeste 28 Nordeste 0 -- -- 53
2019-06-09 10:00:00 21.9 19 Nordeste 34 Nordeste 0 -- -- 50
2019-06-09 09:00:00 21.1 21 Nordeste 33 Nordeste 0 -- -- 53
2019-06-09 08:00:00 20.5 11 Nordeste 30 Nordeste 0 -- -- 53
2019-06-09 07:00:00 20 17 Nordeste 34 Este 0 -- -- 57
2019-06-09 06:00:00 19.7 10 Nordeste 29 Nordeste 0 -- -- 55
2019-06-09 05:00:00 20.3 12 Nordeste 26 Nordeste 0 -- -- 55
2019-06-09 04:00:00 20.4 10 Nordeste 28 Este 0 -- -- 55
2019-06-09 03:00:00 20.1 15 Nordeste 26 Este 0 -- -- 58
2019-06-09 02:00:00 19.7 11 Nordeste 28 Nordeste 0 -- -- 59
2019-06-09 01:00:00 20.4 10 Nordeste 24 Nordeste 0 -- -- 59
2019-06-09 00:00:00 20 19 Nordeste 28 Este 0 -- -- 61
2019-06-08 23:00:00 20.2 15 Nordeste 27 Nordeste 0 -- -- 60
2019-06-08 22:00:00 20.6 19 Nordeste 33 Nordeste 0 -- -- 60
2019-06-08 21:00:00 20.8 23 Nordeste 41 Este 0 -- -- 61
2019-06-08 20:00:00 22.6 15 Este 29 Este 0 -- -- 55
2019-06-08 19:00:00 22.5 21 Este 38 Este 0 -- -- 57
2019-06-08 18:00:00 23.2 28 Este 42 Este 0 -- -- 54
2019-06-08 17:00:00 22.8 31 Nordeste 45 Nordeste 0 -- -- 54
2019-06-08 16:00:00 22.6 25 Este 40 Este 0 -- -- 58
2019-06-08 15:00:00 23.3 10 Sudoeste 37 Este 0 -- -- 57
2019-06-08 14:00:00 23 19 Este 48 Este 0 -- -- 59
2019-06-08 13:00:00 22.2 30 Este 42 Este 0 -- -- 59
2019-06-08 12:00:00 22.2 28 Este 41 Este 0 -- -- 61
2019-06-08 11:00:00 20.8 30 Este 40 Este 0 -- -- 69
2019-06-08 10:00:00 21.3 8 Este 28 Este 0 -- -- 67
2019-06-08 09:00:00 21 5 Este 13 Este 0 -- -- 72
2019-06-08 08:00:00 19.5 0 Calma 5 Nordeste 0 -- -- 76
2019-06-08 07:00:00 18.2 0 Calma 5 Noroeste 0 -- -- 80
2019-06-08 06:00:00 18.6 0 Calma 5 Noroeste 0 -- -- 82
2019-06-08 05:00:00 18.8 0 Calma 4 Nordeste 0 -- -- 81
2019-06-08 04:00:00 19.5 0 Calma 6 Nordeste 0 -- -- 81
2019-06-08 03:00:00 20.1 3 Sur 14 Sudoeste 0 -- -- 81
2019-06-08 02:00:00 20.6 12 Sudoeste 16 Sudoeste 0 -- -- 81
2019-06-08 01:00:00 20.6 4 Oeste 15 Sudoeste 0 -- -- 78
2019-06-08 00:00:00 20.1 6 Oeste 15 Oeste 0 -- -- 76
2019-06-07 23:00:00 20 5 Oeste 11 Oeste 0 -- -- 74
2019-06-07 22:00:00 20.9 6 Oeste 15 Sudoeste 0 -- -- 74
2019-06-07 21:00:00 20.3 9 Sudoeste 18 Sudoeste 0 -- -- 74
2019-06-07 20:00:00 20.7 18 Sudoeste 26 Sudoeste 0 -- -- 71
2019-06-07 19:00:00 21.1 14 Oeste 30 Oeste 0 -- -- 65
2019-06-07 18:00:00 22 17 Oeste 29 Oeste 0 -- -- 63
2019-06-07 17:00:00 24 10 Oeste 19 Oeste 0 -- -- 57
2019-06-07 16:00:00 23.6 8 Sudoeste 26 Sudoeste 0 -- -- 57
2019-06-07 15:00:00 22.2 20 Sudoeste 38 Sudeste 0 -- -- 61
2019-06-07 14:00:00 21.6 15 Sudoeste 28 Oeste 0 -- -- 58
2019-06-07 13:00:00 22.3 12 Oeste 23 Sudoeste 0 -- -- 54
2019-06-07 12:00:00 22.4 10 Oeste 17 Oeste 0 -- -- 52
2019-06-07 11:00:00 21.2 12 Sudoeste 16 Sudoeste 0 -- -- 58
2019-06-07 10:00:00 20.9 10 Sudeste 13 Sudeste 0 -- -- 60
2019-06-07 09:00:00 21.6 2 Sudoeste 7 Sur 0 -- -- 58
2019-06-07 08:00:00 19.8 0 Calma 5 Noroeste 0 -- -- 69
2019-06-07 07:00:00 17.9 0 Calma 8 Noroeste 0 -- -- 69
2019-06-07 06:00:00 18.1 0 Calma 5 Norte 0 -- -- 67
2019-06-07 05:00:00 18.2 0 Calma 5 Nordeste 0 -- -- 67
2019-06-07 04:00:00 18.4 0 Calma 8 Norte 0 -- -- 66
2019-06-07 03:00:00 19.1 3 Noroeste 9 Noroeste 0 -- -- 65
2019-06-07 02:00:00 19.4 0 Calma 12 Sudeste 0 -- -- 63
2019-06-07 01:00:00 20.4 6 Sudeste 15 Sudoeste 0 -- -- 62
2019-06-07 00:00:00 20.8 6 Oeste 14 Oeste 0 -- -- 63
2019-06-06 23:00:00 20.6 4 Oeste 14 Nordeste 0 -- -- 61
2019-06-06 22:00:00 20.1 4 Nordeste 8 Nordeste 0 -- -- 58
2019-06-06 21:00:00 21 2 Sudoeste 14 Sur 0 -- -- 59
2019-06-06 20:00:00 21 15 Sur 23 Sudoeste 0 -- -- 61
2019-06-06 19:00:00 21.7 15 Sudoeste 21 Sudoeste 0 -- -- 58
2019-06-06 18:00:00 21.6 13 Sudoeste 18 Sudoeste 0 -- -- 54
2019-06-06 17:00:00 23.1 10 Sudoeste 25 Oeste 0 -- -- 52
2019-06-06 16:00:00 22.5 15 Sudoeste 22 Sudoeste 0 -- -- 53
2019-06-06 15:00:00 21.5 17 Sudoeste 25 Sudoeste 0 -- -- 54
2019-06-06 14:00:00 22.7 15 Oeste 33 Sudoeste 0 -- -- 54
2019-06-06 13:00:00 22.4 14 Oeste 24 Oeste 0 -- -- 53
2019-06-06 12:00:00 22.1 18 Sudeste 42 Este 0 -- -- 52
2019-06-06 11:00:00 21.1 20 Este 34 Nordeste 0 -- -- 55
2019-06-06 10:00:00 22 0 Calma 26 Nordeste 0 -- -- 53
2019-06-06 09:00:00 20.5 18 Nordeste 31 Nordeste 0 -- -- 57
2019-06-06 08:00:00 20.4 13 Nordeste 20 Nordeste 0 -- -- 57
2019-06-06 07:00:00 19.8 15 Nordeste 34 Nordeste 0 -- -- 61
2019-06-06 06:00:00 19.4 16 Nordeste 23 Este 0 -- -- 60
2019-06-06 05:00:00 19.3 13 Nordeste 26 Nordeste 0 -- -- 64
2019-06-06 04:00:00 20.3 14 Nordeste 28 Nordeste 0 -- -- 63
2019-06-06 03:00:00 20.6 10 Nordeste 31 Nordeste 0 -- -- 63
2019-06-06 02:00:00 20.4 17 Nordeste 26 Nordeste 0 -- -- 66
2019-06-06 01:00:00 20.9 14 Nordeste 37 Nordeste 0 -- -- 66
2019-06-06 00:00:00 21.1 18 Nordeste 28 Nordeste 0 -- -- 63
2019-06-05 23:00:00 21 17 Nordeste 26 Este 0 -- -- 66
2019-06-05 22:00:00 21.6 0 Calma 13 Sur 0 -- -- 72
2019-06-05 21:00:00 21 12 Sur 17 Sudoeste 0 -- -- 76
2019-06-05 20:00:00 21.8 12 Sudoeste 25 Oeste 0 -- -- 71
2019-06-05 19:00:00 22.3 13 Oeste 24 Oeste 0 -- -- 67
2019-06-05 18:00:00 23.1 4 Sur 10 Oeste 0 -- -- 65
2019-06-05 17:00:00 23.1 6 Sudoeste 23 Sudoeste 0 -- -- 67
2019-06-05 16:00:00 22.6 16 Sudoeste 25 Sudoeste 0 -- -- 70
2019-06-05 15:00:00 22.5 11 Oeste 24 Oeste 0 -- -- 68
2019-06-05 14:00:00 23 10 Oeste 20 Oeste 0 -- -- 63
2019-06-05 13:00:00 22.7 11 Oeste 23 Oeste 0 -- -- 65
2019-06-05 12:00:00 23 14 Oeste 22 Sudoeste 0 -- -- 64
2019-06-05 11:00:00 22.6 10 Oeste 17 Oeste 0 -- -- 65
2019-06-05 10:00:00 21.5 10 Oeste 16 Oeste 0 -- -- 71
2019-06-05 09:00:00 22.1 5 Oeste 11 Sudoeste 0 -- -- 72
2019-06-05 08:00:00 20.7 3 Oeste 8 Oeste 0 -- -- 82
2019-06-05 07:00:00 19.5 0 Calma 6 Noroeste 0 -- -- 84
2019-06-05 06:00:00 19.2 0 Calma 4 Nordeste 0 -- -- 84
2019-06-05 05:00:00 20.1 0 Calma 10 Sudoeste 0 -- -- 84
2019-06-05 04:00:00 20.3 2 Noroeste 16 Noroeste 0 -- -- 84
2019-06-05 03:00:00 20.6 2 Oeste 17 Oeste 0 -- -- 84
2019-06-05 02:00:00 20.9 6 Oeste 14 Oeste 0 -- -- 83
2019-06-05 01:00:00 21 2 Oeste 8 Noroeste 0 -- -- 80
2019-06-05 00:00:00 20.9 3 Oeste 9 Oeste 0 -- -- 74
2019-06-04 23:00:00 22 4 Oeste 12 Oeste 0 -- -- 70
2019-06-04 22:00:00 22.2 6 Oeste 12 Oeste 0 -- -- 67
2019-06-04 21:00:00 22.6 4 Oeste 10 Oeste 0 -- -- 65
2019-06-04 20:00:00 23 5 Sur 10 Sur 0 -- -- 63
2019-06-04 19:00:00 23.3 8 Sur 13 Sur 0 -- -- 66
2019-06-04 18:00:00 24.5 8 Sudoeste 14 Sudoeste 0 -- -- 66
2019-06-04 17:00:00 23.1 12 Sudoeste 14 Sudoeste 0 -- -- 65
2019-06-04 16:00:00 23.2 13 Sudoeste 16 Sudoeste 0 -- -- 63
2019-06-04 15:00:00 23.2 12 Sudoeste 18 Sudoeste 0 -- -- 65
2019-06-04 14:00:00 22.9 14 Sudoeste 18 Sudoeste 0 -- -- 71
2019-06-04 13:00:00 22.7 15 Sudoeste 21 Oeste 0 -- -- 71
2019-06-04 12:00:00 22.8 13 Oeste 21 Oeste 0 -- -- 68
2019-06-04 11:00:00 22.3 9 Sudoeste 12 Sudoeste 0 -- -- 69
2019-06-04 10:00:00 21.5 8 Sudoeste 10 Sudoeste 0 -- -- 76
2019-06-04 09:00:00 23 0 Calma 4 Noroeste 0 -- -- 69
2019-06-04 08:00:00 19.6 0 Calma 5 Noroeste 0 -- -- 83
2019-06-04 07:00:00 19.4 0 Calma 3 Noroeste 0 -- -- 89
2019-06-04 06:00:00 20.1 0 Calma 13 Sudoeste 0 -- -- 89
2019-06-04 05:00:00 20.5 10 Sudoeste 13 Sudoeste 0 -- -- 88
2019-06-04 04:00:00 20.7 2 Oeste 6 Oeste 0 -- -- 89
2019-06-04 03:00:00 20.9 2 Sudoeste 7 Sur 0 -- -- 88
2019-06-04 02:00:00 21.5 2 Sudoeste 10 Oeste 0 -- -- 86
2019-06-04 01:00:00 21.6 4 Oeste 13 Sudoeste 0 -- -- 86
2019-06-04 00:00:00 21.9 9 Sudoeste 12 Sudoeste 0 -- -- 85
2019-06-03 23:00:00 22.1 3 Oeste 11 Oeste 0 -- -- 77
2019-06-03 22:00:00 22.8 7 Oeste 16 Oeste 0 -- -- 67
2019-06-03 21:00:00 21.9 7 Oeste 17 Oeste 0 -- -- 72
2019-06-03 20:00:00 22.8 10 Oeste 18 Oeste 0 -- -- 69
2019-06-03 19:00:00 23.5 10 Sudoeste 15 Sudoeste 0 -- -- 65
2019-06-03 18:00:00 24.8 10 Sudoeste 12 Sudoeste 0 -- -- 62
2019-06-03 17:00:00 24.1 9 Sudoeste 13 Sudoeste 0 -- -- 67
2019-06-03 16:00:00 24.4 10 Sur 13 Sudoeste 0 -- -- 65
2019-06-03 15:00:00 24 13 Sudoeste 18 Sudoeste 0 -- -- 62
2019-06-03 14:00:00 24.6 9 Sudoeste 19 Sudoeste 0 -- -- 56
2019-06-03 13:00:00 24.3 14 Oeste 19 Oeste 0 -- -- 57
2019-06-03 12:00:00 23.5 10 Sudoeste 17 Oeste 0 -- -- 63
2019-06-03 11:00:00 23.6 10 Oeste 19 Sudoeste 0 -- -- 65
2019-06-03 10:00:00 22.3 10 Oeste 18 Oeste 0 -- -- 76
2019-06-03 09:00:00 23.1 3 Oeste 8 Sudoeste 0 -- -- 69
2019-06-03 08:00:00 20.2 0 Calma 6 Sur 0 -- -- 86
2019-06-03 07:00:00 21 6 Sur 13 Oeste 0 -- -- 84
2019-06-03 06:00:00 20.2 3 Oeste 9 Oeste 0 -- -- 86
2019-06-03 05:00:00 19.7 3 Noroeste 9 Noroeste 0 -- -- 88
2019-06-03 04:00:00 19.9 0 Calma 6 Oeste 0 -- -- 88
2019-06-03 03:00:00 20.5 4 Oeste 12 Oeste 0 -- -- 88
2019-06-03 02:00:00 20.8 8 Oeste 20 Oeste 0 -- -- 88
2019-06-03 01:00:00 20.3 12 Oeste 18 Sudoeste 0 -- -- 88
2019-06-03 00:00:00 20.9 6 Oeste 13 Oeste 0 -- -- 88
2019-06-02 23:00:00 20.4 5 Oeste 9 Oeste 0 -- -- 86
2019-06-02 22:00:00 20.9 7 Sudoeste 11 Sudoeste 0 -- -- 85
2019-06-02 21:00:00 21.1 6 Sudoeste 12 Sudoeste 0 -- -- 82
2019-06-02 20:00:00 21.1 7 Sur 10 Sur 0 -- -- 80
2019-06-02 19:00:00 21.6 8 Sur 12 Sur 0 -- -- 77
2019-06-02 18:00:00 22.1 9 Sudoeste 12 Sudoeste 0 -- -- 74
2019-06-02 17:00:00 22.5 10 Sudoeste 20 Sudoeste 0 -- -- 74
2019-06-02 16:00:00 21.6 15 Sudoeste 27 Sudoeste 0 -- -- 74
2019-06-02 15:00:00 21.2 15 Oeste 25 Sudoeste 0 -- -- 74
2019-06-02 14:00:00 22.6 11 Oeste 22 Sudoeste 0 -- -- 74
2019-06-02 13:00:00 22.5 12 Oeste 21 Oeste 0 -- -- 71
2019-06-02 12:00:00 22.2 10 Oeste 19 Oeste 0 -- -- 72
2019-06-02 11:00:00 22 10 Oeste 17 Oeste 0 -- -- 74
2019-06-02 10:00:00 22.7 5 Oeste 9 Oeste 0 -- -- 67
2019-06-02 09:00:00 20.2 3 Este 15 Este 0 -- -- 86
2019-06-02 08:00:00 20.1 13 Este 18 Este 0 -- -- 89
2019-06-02 07:00:00 18.8 5 Norte 10 Norte 0 -- -- 88
2019-06-02 06:00:00 18.6 5 Nordeste 8 Nordeste 0 -- -- 86
2019-06-02 05:00:00 18.4 0 Calma 8 Oeste 0 -- -- 87
2019-06-02 04:00:00 19.1 4 Oeste 14 Oeste 0 -- -- 86
2019-06-02 03:00:00 20 6 Oeste 17 Oeste 0 -- -- 85
2019-06-02 02:00:00 19.6 8 Oeste 19 Oeste 0 -- -- 84
2019-06-02 01:00:00 19.8 5 Oeste 11 Oeste 0 -- -- 84
2019-06-02 00:00:00 19.9 0 Calma 10 Sudeste 0 -- -- 83
2019-06-01 23:00:00 20.2 8 Sudeste 16 Sudeste 0 -- -- 82
2019-06-01 22:00:00 20.2 12 Sudeste 15 Sudeste 0 -- -- 80
2019-06-01 21:00:00 20.3 8 Sudeste 10 Sudeste 0 -- -- 78
2019-06-01 20:00:00 21 6 Sur 12 Sur 0 -- -- 74
2019-06-01 19:00:00 21.8 10 Sudoeste 18 Sudoeste 0 -- -- 71
2019-06-01 18:00:00 22.2 10 Oeste 23 Sudoeste 0 -- -- 67
2019-06-01 17:00:00 22.8 12 Oeste 29 Oeste 0 -- -- 67
2019-06-01 16:00:00 22 15 Oeste 28 Oeste 0 -- -- 68
2019-06-01 15:00:00 22.6 13 Oeste 27 Oeste 0 -- -- 67
2019-06-01 14:00:00 22.1 16 Oeste 28 Oeste 0 -- -- 68
2019-06-01 13:00:00 21.8 10 Oeste 27 Oeste 0 -- -- 72
2019-06-01 12:00:00 21.3 9 Sur 18 Sudeste 0 -- -- 69
2019-06-01 11:00:00 22.2 8 Sudoeste 13 Sudoeste 0 -- -- 71
2019-06-01 10:00:00 21.9 0 Calma 8 Norte 0 -- -- 72
2019-06-01 09:00:00 20.1 5 Sudeste 20 Sudeste 0 -- -- 80
2019-06-01 08:00:00 19.9 15 Este 21 Este 0 -- -- 82
2019-06-01 07:00:00 19.2 2 Nordeste 6 Sudoeste 0 -- -- 82
2019-06-01 06:00:00 19.6 6 Sudoeste 16 Oeste 0 -- -- 80
2019-06-01 05:00:00 19.5 5 Oeste 15 Sudoeste 0 -- -- 80
2019-06-01 04:00:00 20.3 6 Oeste 15 Oeste 0 -- -- 81
2019-06-01 03:00:00 19.9 3 Oeste 12 Oeste 0 -- -- 82
2019-06-01 02:00:00 20.2 5 Oeste 14 Oeste 0 -- -- 82
2019-06-01 01:00:00 20.1 3 Noroeste 15 Oeste 0 -- -- 82
2019-06-01 00:00:00 20.1 6 Oeste 16 Oeste 0 -- -- 82
2019-05-31 23:00:00 20.4 7 Oeste 16 Oeste 0 -- -- 81
2019-05-31 22:00:00 20.5 10 Sudoeste 15 Sudoeste 0 -- -- 80
2019-05-31 21:00:00 20.5 12 Sudoeste 15 Sudoeste 0 -- -- 78
2019-05-31 20:00:00 20.8 11 Sudoeste 16 Sudoeste 0 -- -- 74
2019-05-31 19:00:00 21.3 11 Sudoeste 16 Sudoeste 0 -- -- 69
2019-05-31 18:00:00 21.9 11 Sur 15 Sudoeste 0 -- -- 67
2019-05-31 17:00:00 22 12 Sudoeste 16 Sudoeste 0 -- -- 67
2019-05-31 16:00:00 22.1 11 Sudoeste 14 Sudoeste 0 -- -- 68
2019-05-31 15:00:00 22 10 Sudoeste 12 Sudoeste 0 -- -- 66
2019-05-31 14:00:00 21.1 6 Sudeste 18 Sudeste 0 -- -- 72
2019-05-31 13:00:00 19.6 15 Sudeste 24 Sudeste 0 -- -- 74
2019-05-31 12:00:00 20.9 12 Sudeste 15 Sudeste 0 -- -- 74
2019-05-31 11:00:00 20.3 8 Sudeste 10 Sur 0 -- -- 74
2019-05-31 10:00:00 20.8 6 Sudeste 13 Este 0 -- -- 74
2019-05-31 09:00:00 20.4 11 Este 16 Este 0 -- -- 80
2019-05-31 08:00:00 18.7 8 Nordeste 13 Nordeste 0 -- -- 85
2019-05-31 07:00:00 18.2 7 Nordeste 11 Nordeste 0 -- -- 86
2019-05-31 06:00:00 18.7 0 Calma 8 Sudoeste 0 -- -- 84
2019-05-31 05:00:00 19.2 3 Oeste 13 Noroeste 0 -- -- 83
2019-05-31 04:00:00 19.6 8 Noroeste 18 Noroeste 0 -- -- 82
2019-05-31 03:00:00 19.7 3 Noroeste 12 Noroeste 0 -- -- 80
2019-05-31 02:00:00 19.2 4 Noroeste 10 Noroeste 0 -- -- 83
2019-05-31 01:00:00 19.2 0 Calma 8 Este 0 -- -- 83
2019-05-31 00:00:00 20 8 Este 20 Este 0 -- -- 82
2019-05-30 23:00:00 19.4 17 Este 20 Este 0 -- -- 81
2019-05-30 22:00:00 19.4 13 Sudeste 16 Sudeste 0 -- -- 80
2019-05-30 21:00:00 19.9 12 Sur 18 Sudoeste 0 -- -- 77
2019-05-30 20:00:00 20.7 13 Sudoeste 20 Sudoeste 0 -- -- 74
2019-05-30 19:00:00 21.5 12 Sudoeste 24 Oeste 0 -- -- 67
2019-05-30 18:00:00 21.7 12 Oeste 21 Oeste 0 -- -- 65
2019-05-30 17:00:00 22 10 Sudoeste 15 Sudoeste 0 -- -- 61
2019-05-30 16:00:00 22.4 7 Sur 15 Sudeste 0 -- -- 61
2019-05-30 15:00:00 21.4 11 Sudeste 19 Sudeste 0 -- -- 65
2019-05-30 14:00:00 20.8 16 Sudeste 23 Sudeste 0 -- -- 68
2019-05-30 13:00:00 20.6 15 Sudeste 20 Sudeste 0 -- -- 68
2019-05-30 12:00:00 20.1 14 Sudeste 18 Sudeste 0 -- -- 69
2019-05-30 11:00:00 20.4 10 Sudeste 14 Sudeste 0 -- -- 69
2019-05-30 10:00:00 20.8 6 Sudoeste 15 Sudoeste 0 -- -- 70
2019-05-30 09:00:00 20.3 10 Oeste 19 Oeste 0 -- -- 74
2019-05-30 08:00:00 19.9 9 Oeste 24 Oeste 0 -- -- 76
2019-05-30 07:00:00 19.5 12 Oeste 23 Oeste 0 -- -- 78
2019-05-30 06:00:00 19.8 12 Oeste 22 Oeste 0 -- -- 78
2019-05-30 05:00:00 19.5 6 Oeste 14 Oeste 0 -- -- 78
2019-05-30 04:00:00 19.7 4 Oeste 19 Sudoeste 0 -- -- 78
2019-05-30 03:00:00 19.5 8 Sudoeste 14 Sur 0 -- -- 80
2019-05-30 02:00:00 19.4 6 Sur 11 Sur 0 -- -- 80
2019-05-30 01:00:00 19.6 5 Sudoeste 12 Sudoeste 0 -- -- 78
2019-05-30 00:00:00 20 8 Sudoeste 12 Sudoeste 0 -- -- 76
2019-05-29 23:00:00 19.9 7 Oeste 21 Oeste 0 -- -- 75
2019-05-29 22:00:00 19.6 14 Oeste 23 Oeste 0 -- -- 72
2019-05-29 21:00:00 20.9 9 Oeste 22 Oeste 0 -- -- 70
2019-05-29 20:00:00 21.9 8 Oeste 13 Oeste 0 -- -- 67
2019-05-29 19:00:00 22.6 9 Sur 13 Sudeste 0 -- -- 63
2019-05-29 18:00:00 21.9 12 Sudeste 24 Sudeste 0 -- -- 66
2019-05-29 17:00:00 20.3 17 Sudeste 25 Sudeste 0 -- -- 67
2019-05-29 16:00:00 20.2 12 Sudeste 17 Sudoeste 0 -- -- 63
2019-05-29 15:00:00 22.8 14 Sudoeste 24 Sudoeste 0 -- -- 61
2019-05-29 14:00:00 21 16 Sudoeste 30 Oeste 0 -- -- 65
2019-05-29 13:00:00 21.4 16 Oeste 28 Sudoeste 0 -- -- 67
2019-05-29 12:00:00 21 13 Oeste 25 Sudoeste -- -- -- 67
2019-05-29 11:00:00 19.8 15 Sudoeste 21 Sudoeste 0 -- -- 70
2019-05-29 10:00:00 20.1 10 Sudoeste 14 Sudoeste 0 -- -- 72
2019-05-29 09:00:00 19.5 6 Sudoeste 11 Sudoeste 0 -- -- 74
2019-05-29 08:00:00 19.7 8 Sudoeste 15 Sudoeste 0 -- -- 78
2019-05-29 07:00:00 19.2 5 Este 17 Sudoeste 0 -- -- 80
2019-05-29 06:00:00 18.5 7 Nordeste 10 Nordeste 0 -- -- 83
2019-05-29 05:00:00 19 0 Calma 7 Noroeste 0 -- -- 81
2019-05-29 04:00:00 19.9 4 Noroeste 17 Sudoeste 0 -- -- 80
2019-05-29 03:00:00 20.2 6 Oeste 18 Oeste 0 -- -- 80
2019-05-29 02:00:00 20.3 2 Oeste 11 Sudoeste 0 -- -- 80
2019-05-29 01:00:00 20.2 6 Sudoeste 13 Sudoeste 0 -- -- 81
2019-05-29 00:00:00 20.2 11 Sur 14 Sur 0 -- -- 81
2019-05-28 23:00:00 20.3 6 Sur 8 Sur 0 -- -- 77
2019-05-28 22:00:00 20.6 6 Sudoeste 17 Oeste 0 -- -- 74
2019-05-28 21:00:00 20.4 10 Oeste 24 Oeste 0 -- -- 72
2019-05-28 20:00:00 21.6 11 Oeste 24 Oeste 0 -- -- 68
2019-05-28 19:00:00 22.4 10 Oeste 20 Oeste 0 -- -- 65
2019-05-28 18:00:00 23.5 8 Oeste 14 Oeste 0 -- -- 62
2019-05-28 17:00:00 23.2 4 Sur 13 Sur 0 -- -- 62
2019-05-28 16:00:00 22.6 11 Sur 21 Sur 0 -- -- 67
2019-05-28 15:00:00 22.7 15 Sudoeste 18 Sudoeste 0 -- -- 66
2019-05-28 14:00:00 21.1 16 Sudoeste 22 Sudoeste 0 -- -- 68
2019-05-28 13:00:00 22.2 13 Oeste 23 Oeste 0 -- -- 69
2019-05-28 12:00:00 21.6 14 Oeste 24 Oeste 0 -- -- 71
2019-05-28 11:00:00 22.1 9 Oeste 18 Oeste 0 -- -- 70
2019-05-28 10:00:00 21.9 6 Oeste 13 Sudoeste 0 -- -- 72
2019-05-28 09:00:00 20.2 0 Calma 5 Sudoeste 0 -- -- 80
2019-05-28 08:00:00 19.6 0 Calma 4 Oeste 0 -- -- 86
2019-05-28 07:00:00 19.2 0 Calma 9 Oeste 0 -- -- 86
2019-05-28 06:00:00 19.5 2 Noroeste 9 Oeste 0 -- -- 86
2019-05-28 05:00:00 19.1 3 Oeste 15 Oeste 0 -- -- 86
2019-05-28 04:00:00 19.6 5 Oeste 13 Oeste 0 -- -- 88
2019-05-28 03:00:00 19.4 0 Calma 4 Oeste 0 -- -- 87
2019-05-28 02:00:00 19.5 0 Calma 4 Sudoeste 0 -- -- 86
2019-05-28 01:00:00 19.8 0 Calma 3 Sudeste 0 -- -- 85
2019-05-28 00:00:00 20.3 3 Sudeste 7 Sur 0 -- -- 84
2019-05-27 23:00:00 20.5 4 Sudoeste 10 Sudoeste 0 -- -- 82
2019-05-27 22:00:00 20.8 7 Sudoeste 14 Sudoeste 0 -- -- 81
2019-05-27 21:00:00 21.2 10 Sudoeste 14 Sudoeste 0 -- -- 78
2019-05-27 20:00:00 22.3 5 Sudoeste 15 Oeste 0 -- -- 69
2019-05-27 19:00:00 22.6 12 Sudoeste 18 Sudoeste 0 -- -- 69
2019-05-27 18:00:00 22.1 15 Sudoeste 20 Sudoeste 0 -- -- 72
2019-05-27 17:00:00 23.3 8 Sur 16 Sudoeste 0 -- -- 65
2019-05-27 16:00:00 23.5 10 Oeste 26 Sudoeste 0 -- -- 66
2019-05-27 15:00:00 22.4 15 Sudoeste 26 Sudoeste 0 -- -- 71
2019-05-27 14:00:00 22.3 17 Sudoeste 25 Sudoeste 0 -- -- 69
2019-05-27 13:00:00 22.8 12 Sudoeste 15 Sudoeste 0 -- -- 69
2019-05-27 12:00:00 23 8 Sudoeste 14 Oeste 0 -- -- 69
2019-05-27 11:00:00 22.1 8 Oeste 14 Oeste 0 -- -- 72
2019-05-27 10:00:00 21 10 Oeste 17 Sudoeste 0 -- -- 78
2019-05-27 09:00:00 20.4 8 Oeste 15 Oeste 0 -- -- 84
2019-05-27 08:00:00 19.3 3 Oeste 7 Oeste 0 -- -- 89
2019-05-27 07:00:00 18 0 Calma 5 Nordeste 0 -- -- 89
2019-05-27 06:00:00 18.1 2 Noroeste 7 Noroeste 0 -- -- 89
2019-05-27 05:00:00 18.6 0 Calma 4 Nordeste 0 -- -- 89
2019-05-27 04:00:00 19.1 0 Calma 4 Sudoeste 0 -- -- 88
2019-05-27 03:00:00 19.6 3 Sudoeste 7 Sur 0 -- -- 87
2019-05-27 02:00:00 19.8 5 Sudoeste 12 Sudoeste 0 -- -- 86
2019-05-27 01:00:00 20.1 6 Oeste 13 Oeste 0 -- -- 84
2019-05-27 00:00:00 20.4 7 Oeste 14 Sudoeste 0 -- -- 81
2019-05-26 23:00:00 20.5 8 Oeste 13 Oeste 0 -- -- 76
2019-05-26 22:00:00 21 8 Oeste 12 Sudoeste 0 -- -- 72
2019-05-26 21:00:00 21.2 4 Sudoeste 10 Sudoeste 0 -- -- 70
2019-05-26 20:00:00 21.5 9 Sudoeste 12 Sudoeste 0 -- -- 69
2019-05-26 19:00:00 22.4 10 Sudoeste 14 Sudoeste 0 -- -- 66
2019-05-26 18:00:00 22.2 12 Sudoeste 23 Sur 0 -- -- 68
2019-05-26 17:00:00 21.9 19 Sur 22 Sur 0 -- -- 72
2019-05-26 16:00:00 22 15 Sur 18 Sur 0 -- -- 69
2019-05-26 15:00:00 22.5 12 Sur 21 Sudoeste 0 -- -- 66
2019-05-26 14:00:00 21.4 19 Sudoeste 26 Sudoeste 0 -- -- 69
2019-05-26 13:00:00 21 18 Sudoeste 24 Sudoeste 0 -- -- 68
2019-05-26 12:00:00 21.8 14 Sudoeste 19 Sudoeste 0 -- -- 65
2019-05-26 11:00:00 22.4 3 Sur 8 Sur 0 -- -- 63
2019-05-26 10:00:00 20.9 6 Sur 15 Oeste 0 -- -- 67
2019-05-26 09:00:00 21 6 Oeste 15 Oeste 0 -- -- 67
2019-05-26 08:00:00 19.7 4 Noroeste 11 Oeste 0 -- -- 74
2019-05-26 07:00:00 18.4 0 Calma 13 Sur 0 -- -- 76
2019-05-26 06:00:00 19.4 7 Sur 14 Sur 0 -- -- 78
2019-05-26 05:00:00 18.6 7 Este 9 Este 0 -- -- 76
2019-05-26 04:00:00 19.4 0 Calma 19 Oeste 0 -- -- 75
2019-05-26 03:00:00 19 2 Noroeste 11 Noroeste 0 -- -- 78
2019-05-26 02:00:00 18.2 0 Calma 9 Noroeste 0 -- -- 80
2019-05-26 01:00:00 19.6 4 Sur 10 Sudoeste 0 -- -- 78
2019-05-26 00:00:00 19.8 6 Sudoeste 24 Sudoeste 0 -- -- 76
2019-05-25 23:00:00 20.1 6 Oeste 14 Sudoeste 0 -- -- 76
2019-05-25 22:00:00 20.7 4 Oeste 12 Sur 0 -- -- 74
2019-05-25 21:00:00 20.1 11 Sur 15 Sur 0 -- -- 72
2019-05-25 20:00:00 21.3 12 Sudoeste 21 Oeste 0 -- -- 68
2019-05-25 19:00:00 22 13 Oeste 23 Oeste 0 -- -- 65
2019-05-25 18:00:00 22.8 9 Oeste 18 Oeste 0 -- -- 63
2019-05-25 17:00:00 22.7 13 Sudoeste 22 Sudoeste 0 -- -- 65
2019-05-25 16:00:00 23 14 Sudoeste 24 Sudoeste 0 -- -- 65
2019-05-25 15:00:00 22.7 13 Oeste 25 Oeste 0 -- -- 64
2019-05-25 14:00:00 22.2 14 Oeste 23 Oeste 0 -- -- 66
2019-05-25 13:00:00 22.9 12 Oeste 21 Oeste 0 -- -- 63
2019-05-25 12:00:00 21.2 10 Sudoeste 15 Sudoeste 0 -- -- 63
2019-05-25 11:00:00 22.3 7 Oeste 14 Sudoeste 0 -- -- 64
2019-05-25 10:00:00 22 3 Sur 11 Este 0 -- -- 69
2019-05-25 09:00:00 21.4 4 Nordeste 8 Nordeste 0 -- -- 72
2019-05-25 08:00:00 18.9 0 Calma 5 Norte 0 -- -- 84
2019-05-25 07:00:00 18.6 0 Calma 5 Noroeste 0 -- -- 85
2019-05-25 06:00:00 18.3 0 Calma 6 Noroeste 0 -- -- 84
2019-05-25 05:00:00 18.9 0 Calma 9 Oeste 0 -- -- 83
2019-05-25 04:00:00 19.5 2 Oeste 6 Oeste 0 -- -- 83
2019-05-25 03:00:00 19.5 0 Calma 6 Noroeste 0 -- -- 82
2019-05-25 02:00:00 20.3 2 Noroeste 19 Sudoeste 0 -- -- 80
2019-05-25 01:00:00 20.4 13 Sudoeste 16 Sur 0 -- -- 83
2019-05-25 00:00:00 20.4 8 Sur 10 Sur 0 -- -- 87
2019-05-24 23:00:00 20.8 0 Calma 5 Sudoeste 0 -- -- 86
2019-05-24 22:00:00 21.1 4 Sudoeste 7 Sudoeste 0 -- -- 82
2019-05-24 21:00:00 21.2 4 Sudoeste 12 Oeste 0 -- -- 76
2019-05-24 20:00:00 21.9 9 Sudoeste 14 Sudoeste 0 -- -- 72
2019-05-24 19:00:00 22.1 12 Sudoeste 16 Sudoeste 0 -- -- 71
2019-05-24 18:00:00 23.5 10 Sudoeste 14 Sudoeste 0 -- -- 61
2019-05-24 17:00:00 23.7 10 Sudoeste 15 Sudoeste 0 -- -- 59
2019-05-24 16:00:00 23.7 12 Sudoeste 18 Oeste 0 -- -- 59
2019-05-24 15:00:00 23.9 11 Oeste 22 Oeste 0 -- -- 65
2019-05-24 14:00:00 22.2 14 Oeste 31 Oeste 0 -- -- 67
2019-05-24 13:00:00 22 12 Oeste 24 Oeste 0 -- -- 69
2019-05-24 12:00:00 21.7 16 Sudoeste 25 Sudoeste 0 -- -- 72
2019-05-24 11:00:00 21.6 15 Sudoeste 22 Sudoeste 0 -- -- 72
2019-05-24 10:00:00 21.4 9 Oeste 21 Oeste 0 -- -- 72
2019-05-24 09:00:00 21 8 Oeste 16 Oeste 0 -- -- 72
2019-05-24 08:00:00 19.4 0 Calma 8 Noroeste 0 -- -- 78
2019-05-24 07:00:00 18 0 Calma 4 Norte 0 -- -- 78
2019-05-24 06:00:00 17.4 2 Norte 6 Norte 0 -- -- 80
2019-05-24 05:00:00 18.1 0 Calma 5 Noroeste 0 -- -- 81
2019-05-24 04:00:00 18.9 0 Calma 14 Sudoeste 0 -- -- 80
2019-05-24 03:00:00 20.2 11 Sudoeste 15 Sudoeste 0 -- -- 77
2019-05-24 02:00:00 20.6 8 Oeste 14 Oeste 0 -- -- 71
2019-05-24 01:00:00 19.8 4 Oeste 13 Oeste 0 -- -- 74
2019-05-24 00:00:00 20.6 5 Oeste 9 Oeste 0 -- -- 75
2019-05-23 23:00:00 20.9 4 Sudoeste 14 Oeste 0 -- -- 72
2019-05-23 22:00:00 20.9 3 Oeste 10 Oeste 0 -- -- 69
2019-05-23 21:00:00 20.7 0 Calma 23 Sur 0 -- -- 71
2019-05-23 20:00:00 20.7 19 Sudeste 24 Sudeste 0 -- -- 74
2019-05-23 19:00:00 21.9 11 Sur 31 Oeste 0 -- -- 63
2019-05-23 18:00:00 24.1 11 Oeste 30 Oeste 0 -- -- 57
2019-05-23 17:00:00 23.9 6 Sudoeste 17 Sudoeste 0 -- -- 57
2019-05-23 16:00:00 22.4 18 Sudoeste 29 Sur 0 -- -- 62
2019-05-23 15:00:00 22.1 14 Sur 25 Sudoeste 0 -- -- 61
2019-05-23 14:00:00 22.6 15 Oeste 28 Oeste 0 -- -- 61
2019-05-23 13:00:00 22.7 10 Oeste 22 Sudoeste 0 -- -- 58
2019-05-23 12:00:00 21.8 12 Sudoeste 18 Sudoeste 0 -- -- 59
2019-05-23 11:00:00 21.6 10 Sur 13 Sur 0 -- -- 63
2019-05-23 10:00:00 22.1 4 Oeste 16 Oeste 0 -- -- 63
2019-05-23 09:00:00 21.7 0 Calma 7 Noroeste 0 -- -- 69
2019-05-23 08:00:00 19 0 Calma 4 Norte 0 -- -- 78
2019-05-23 07:00:00 17.7 3 Nordeste 5 Nordeste 0 -- -- 81
2019-05-23 06:00:00 17.8 0 Calma 7 Noroeste 0 -- -- 81
2019-05-23 05:00:00 18.4 0 Calma 8 Nordeste 0 -- -- 80
2019-05-23 04:00:00 19 2 Este 5 Nordeste 0 -- -- 78
2019-05-23 03:00:00 19 0 Calma 12 Noroeste 0 -- -- 78
2019-05-23 02:00:00 18.5 2 Noroeste 5 Noroeste 0 -- -- 77
2019-05-23 01:00:00 19.6 0 Calma 3 Este 0 -- -- 76
2019-05-23 00:00:00 19.8 0 Calma 7 Oeste 0 -- -- 74
2019-05-22 23:00:00 19.8 3 Oeste 17 Sudoeste 0 -- -- 74
2019-05-22 22:00:00 20 12 Sur 32 Sur 0 -- -- 76
2019-05-22 21:00:00 20.2 11 Sur 16 Sudoeste 0 -- -- 71
2019-05-22 20:00:00 21.2 10 Oeste 25 Sudoeste 0 -- -- 67
2019-05-22 19:00:00 21.5 19 Sudoeste 28 Sudoeste 0 -- -- 67
2019-05-22 18:00:00 21.3 22 Sudoeste 27 Sudoeste 0 -- -- 67
2019-05-22 17:00:00 22.2 10 Sudoeste 22 Sudoeste 0 -- -- 61
2019-05-22 16:00:00 21.4 18 Sudoeste 24 Oeste 0 -- -- 63
2019-05-22 15:00:00 23.3 12 Oeste 23 Sudoeste 0 -- -- 59
2019-05-22 14:00:00 22.2 11 Sudoeste 22 Sudoeste 0 -- -- 61
2019-05-22 13:00:00 21.3 18 Sudoeste 22 Sudoeste 0 -- -- 65
2019-05-22 12:00:00 21.5 13 Sudoeste 18 Sudoeste 0 -- -- 65
2019-05-22 11:00:00 21 10 Sudoeste 15 Sudoeste 0 -- -- 65
2019-05-22 10:00:00 21.5 6 Sudoeste 10 Sudoeste 0 -- -- 67
2019-05-22 09:00:00 21.7 0 Calma 9 Este 0 -- -- 69
2019-05-22 08:00:00 18.8 8 Este 12 Noroeste 0 -- -- 76
2019-05-22 07:00:00 18.5 5 Noroeste 11 Noroeste 0 -- -- 78
2019-05-22 06:00:00 17.7 0 Calma 9 Noroeste 0 -- -- 78
2019-05-22 05:00:00 18 0 Calma 3 Noroeste 0 -- -- 76
2019-05-22 04:00:00 18.5 0 Calma 6 Sudoeste 0 -- -- 75
2019-05-22 03:00:00 19.6 3 Sudoeste 9 Sudoeste 0 -- -- 71
2019-05-22 02:00:00 19.5 0 Calma 8 Noroeste 0 -- -- 71
2019-05-22 01:00:00 19.6 0 Calma 12 Noroeste 0 -- -- 69
2019-05-22 00:00:00 19.2 2 Noroeste 10 Sur 0 -- -- 69
2019-05-21 23:00:00 20.1 5 Sur 12 Sudoeste 0 -- -- 69
2019-05-21 22:00:00 20.2 9 Sudoeste 13 Sudoeste 0 -- -- 69
2019-05-21 21:00:00 19.9 7 Oeste 16 Oeste 0 -- -- 67
2019-05-21 20:00:00 21.2 4 Oeste 25 Sudoeste 0 -- -- 62
2019-05-21 19:00:00 20.3 22 Sudoeste 29 Sudoeste 0 -- -- 67
2019-05-21 18:00:00 20.5 15 Sur 22 Sur 0 -- -- 63
2019-05-21 17:00:00 22.2 16 Sudoeste 22 Sudoeste 0 -- -- 57
2019-05-21 16:00:00 21.8 15 Sudoeste 30 Oeste 0 -- -- 58
2019-05-21 15:00:00 23.1 13 Oeste 32 Oeste 0 -- -- 57
2019-05-21 14:00:00 23.8 9 Este 48 Nordeste 0 -- -- 53
2019-05-21 13:00:00 22.2 19 Este 37 Este 0 -- -- 57
2019-05-21 12:00:00 22.6 8 Sudoeste 25 Sudoeste 0 -- -- 57
2019-05-21 11:00:00 21.1 11 Sudoeste 16 Este 0 -- -- 57
2019-05-21 10:00:00 20.9 13 Este 26 Este 0 -- -- 59
2019-05-21 09:00:00 20.8 9 Nordeste 17 Nordeste 0 -- -- 61
2019-05-21 08:00:00 19.1 0 Calma 4 Nordeste 0 -- -- 70
2019-05-21 07:00:00 17.9 3 Noroeste 9 Noroeste 0 -- -- 72
2019-05-21 06:00:00 18.4 0 Calma 8 Nordeste 0 -- -- 72
2019-05-21 05:00:00 17.9 4 Nordeste 7 Nordeste 0 -- -- 71
2019-05-21 04:00:00 18.2 0 Calma 0 Calma 0 -- -- 71
2019-05-21 03:00:00 18.6 0 Calma 3 Noroeste 0 -- -- 70
2019-05-21 02:00:00 19.8 0 Calma 12 Sudoeste 0 -- -- 69
2019-05-21 01:00:00 20.3 9 Sudoeste 14 Sudoeste 0 -- -- 69
2019-05-21 00:00:00 20.6 5 Oeste 14 Oeste 0 -- -- 67
2019-05-20 23:00:00 20.2 0 Calma 8 Sur 0 -- -- 63
2019-05-20 22:00:00 20.9 8 Sur 21 Sur 0 -- -- 63
2019-05-20 21:00:00 20.7 17 Sur 21 Sur 0 -- -- 67
2019-05-20 20:00:00 21.2 17 Sudoeste 24 Sudoeste 0 -- -- 66
2019-05-20 19:00:00 22.1 13 Oeste 24 Oeste 0 -- -- 61
2019-05-20 18:00:00 23.3 13 Oeste 27 Oeste 0 -- -- 59
2019-05-20 17:00:00 24.4 11 Oeste 21 Oeste 0 -- -- 58
2019-05-20 16:00:00 23 8 Sudoeste 28 Sudoeste 0 -- -- 58
2019-05-20 15:00:00 21.5 21 Sur 28 Sur 0 -- -- 63
2019-05-20 14:00:00 21.4 19 Sudoeste 31 Oeste 0 -- -- 61
2019-05-20 13:00:00 21.8 16 Oeste 31 Oeste 0 -- -- 63
2019-05-20 12:00:00 22.2 10 Oeste 18 Oeste 0 -- -- 57
2019-05-20 11:00:00 21.9 13 Sudoeste 15 Sur 0 -- -- 59
2019-05-20 10:00:00 21.6 5 Sur 10 Sudoeste 0 -- -- 58
2019-05-20 09:00:00 21.7 0 Calma 6 Noroeste 0 -- -- 63
2019-05-20 08:00:00 20 0 Calma 4 Noroeste 0 -- -- 72
2019-05-20 07:00:00 18.3 0 Calma 8 Noroeste 0 -- -- 72
2019-05-20 06:00:00 19 0 Calma 10 Sur 0 -- -- 71
2019-05-20 05:00:00 19.6 7 Sur 16 Sur 0 -- -- 71
2019-05-20 04:00:00 18.4 2 Nordeste 7 Noroeste 0 -- -- 71
2019-05-20 03:00:00 19 0 Calma 9 Noroeste 0 -- -- 70
2019-05-20 02:00:00 19.4 2 Noroeste 12 Sudeste 0 -- -- 69
2019-05-20 01:00:00 20.4 5 Sur 9 Oeste 0 -- -- 70
2019-05-20 00:00:00 19.6 0 Calma 12 Noroeste 0 -- -- 69
2019-05-19 23:00:00 20.1 0 Calma 3 Norte 0 -- -- 71
2019-05-19 22:00:00 20.4 0 Calma 11 Sur 0 -- -- 71
2019-05-19 21:00:00 21 7 Sudoeste 14 Oeste 0 -- -- 69
2019-05-19 20:00:00 21.8 6 Oeste 24 Sudoeste 0 -- -- 66
2019-05-19 19:00:00 21 21 Sudoeste 26 Sudoeste 0 -- -- 69
2019-05-19 18:00:00 20.7 19 Sudoeste 26 Oeste 0 -- -- 65
2019-05-19 17:00:00 22.3 15 Oeste 32 Oeste 0 -- -- 58
2019-05-19 16:00:00 24.4 7 Oeste 22 Sur 0 -- -- 53
2019-05-19 15:00:00 21.4 12 Sur 20 Sudoeste 0 -- -- 66
2019-05-19 14:00:00 21.4 13 Sudoeste 34 Sudoeste 0 -- -- 65
2019-05-19 13:00:00 21.4 22 Oeste 38 Oeste 0 -- -- 63
2019-05-19 12:00:00 21.7 18 Sudoeste 26 Sudoeste 0 -- -- 63
2019-05-19 11:00:00 21.6 8 Sudoeste 10 Sudoeste 0 -- -- 63
2019-05-19 10:00:00 21.4 4 Sur 12 Este 0 -- -- 63
2019-05-19 09:00:00 21.3 6 Este 19 Este 0 -- -- 65
2019-05-19 08:00:00 19.8 11 Nordeste 25 Este 0 -- -- 67
2019-05-19 07:00:00 19.1 10 Nordeste 26 Este 0 -- -- 63
2019-05-19 06:00:00 19 5 Nordeste 14 Nordeste 0 -- -- 69
2019-05-19 05:00:00 19.1 0 Calma 10 Este 0 -- -- 70
2019-05-19 04:00:00 19.3 5 Nordeste 13 Este 0 -- -- 74
2019-05-19 03:00:00 19.8 0 Calma 8 Sudoeste 0 -- -- 75
2019-05-19 02:00:00 20 8 Sur 10 Sur 0 -- -- 75
2019-05-19 01:00:00 20.5 3 Oeste 9 Oeste 0 -- -- 74
2019-05-19 00:00:00 20.1 0 Calma 6 Sudoeste 0 -- -- 76
2019-05-18 23:00:00 20.2 6 Sur 17 Sudoeste 0 -- -- 76
2019-05-18 22:00:00 20.4 13 Sudoeste 16 Sudoeste 0 -- -- 75
2019-05-18 21:00:00 20.5 13 Sudoeste 18 Sudoeste 0 -- -- 72
2019-05-18 20:00:00 21.2 9 Oeste 28 Sudoeste 0 -- -- 69
2019-05-18 19:00:00 21.4 17 Sudoeste 26 Sudoeste 0 -- -- 68
2019-05-18 18:00:00 21.6 17 Sudoeste 33 Sudoeste 0 -- -- 66
2019-05-18 17:00:00 21.4 24 Sudoeste 30 Sudoeste 0 -- -- 71
2019-05-18 16:00:00 21.6 12 Sudoeste 24 Sudoeste 0 -- -- 65
2019-05-18 15:00:00 22.2 15 Oeste 24 Oeste 0 -- -- 64
2019-05-18 14:00:00 22 12 Sudoeste 16 Sudoeste 0 -- -- 66
2019-05-18 13:00:00 21 15 Sudoeste 21 Sudoeste 0 -- -- 69
2019-05-18 12:00:00 20.8 14 Sudoeste 19 Sudoeste 0 -- -- 68
2019-05-18 11:00:00 20.7 11 Sudoeste 17 Sudoeste 0 -- -- 66
2019-05-18 10:00:00 21.2 5 Este 18 Este 0 -- -- 63
2019-05-18 09:00:00 20.3 6 Nordeste 12 Este 0 -- -- 72
2019-05-18 08:00:00 19.5 3 Nordeste 9 Nordeste 0 -- -- 78
2019-05-18 07:00:00 18.6 0 Calma 5 Nordeste 0 -- -- 78
2019-05-18 06:00:00 19.2 4 Nordeste 17 Este 0 -- -- 78
2019-05-18 05:00:00 19.1 5 Nordeste 17 Este 0 -- -- 76
2019-05-18 04:00:00 19.2 13 Nordeste 20 Nordeste 0 -- -- 76
2019-05-18 03:00:00 19.5 13 Nordeste 22 Este 0 -- -- 76
2019-05-18 02:00:00 19.5 12 Nordeste 22 Nordeste 0 -- -- 76
2019-05-18 01:00:00 19.5 10 Nordeste 18 Este 0 -- -- 76
2019-05-18 00:00:00 20.1 13 Este 22 Nordeste 0 -- -- 76
2019-05-17 23:00:00 20.3 14 Nordeste 23 Este 0 -- -- 76
2019-05-17 22:00:00 20.9 0 Calma 12 Sudoeste 0 -- -- 80
2019-05-17 21:00:00 20.5 14 Sur 17 Sur 0 -- -- 81
2019-05-17 20:00:00 20.6 12 Sudoeste 18 Sudoeste 0 -- -- 77
2019-05-17 19:00:00 21.4 16 Sudoeste 22 Sudoeste 0 -- -- 75
2019-05-17 18:00:00 22.6 10 Oeste 22 Sudoeste 0 -- -- 69
2019-05-17 17:00:00 22.3 11 Oeste 21 Oeste 0 -- -- 67
2019-05-17 16:00:00 22.4 12 Sudoeste 21 Sudoeste 0 -- -- 68
2019-05-17 15:00:00 22.5 12 Sudoeste 16 Sudoeste 0 -- -- 67
2019-05-17 14:00:00 21.7 13 Sudoeste 17 Sudoeste 0 -- -- 68
2019-05-17 13:00:00 21.9 10 Sudoeste 17 Oeste 0 -- -- 67
2019-05-17 12:00:00 21.8 11 Oeste 19 Sudoeste 0 -- -- 67
2019-05-17 11:00:00 20.8 13 Sudoeste 16 Sudoeste 0 -- -- 72
2019-05-17 10:00:00 21 10 Sudoeste 13 Sur 0 -- -- 76
2019-05-17 09:00:00 20.6 0 Calma 4 Nordeste 0 -- -- 76
2019-05-17 08:00:00 18.5 0 Calma 12 Noroeste 0 -- -- 86
2019-05-17 07:00:00 18.7 2 Oeste 12 Sudoeste 0 -- -- 86
2019-05-17 06:00:00 19.1 5 Sudoeste 9 Sudoeste 0 -- -- 85
2019-05-17 05:00:00 19.3 4 Oeste 9 Sudoeste 0 -- -- 84
2019-05-17 04:00:00 19.4 2 Sudoeste 8 Sudoeste 0 -- -- 83
2019-05-17 03:00:00 19.8 7 Sudoeste 12 Sudoeste 0 -- -- 83
2019-05-17 02:00:00 19.8 9 Sudoeste 12 Sudoeste 0 -- -- 83
2019-05-17 01:00:00 19.7 7 Sur 10 Sudeste 0 -- -- 82
2019-05-17 00:00:00 19.8 5 Sudeste 10 Sudeste 0 -- -- 82